createdAt,value
2022-12-03T00:00:33.585Z,49.44
2022-12-03T00:03:00.271Z,49.44
2022-12-03T00:05:26.878Z,49.52
2022-12-03T00:07:53.567Z,49.50
2022-12-03T00:10:20.226Z,49.36
2022-12-03T00:12:46.828Z,49.54
2022-12-03T00:15:13.409Z,49.53
2022-12-03T00:17:39.979Z,49.20
2022-12-03T00:20:08.181Z,49.21
2022-12-03T00:22:34.859Z,48.96
2022-12-03T00:25:01.392Z,49.39
2022-12-03T00:27:28.165Z,49.40
2022-12-03T00:29:54.736Z,49.43
2022-12-03T00:32:21.258Z,49.62
2022-12-03T00:34:47.779Z,49.06
2022-12-03T00:37:14.300Z,49.29
2022-12-03T00:39:40.815Z,49.33
2022-12-03T00:42:07.396Z,49.26
2022-12-03T00:44:33.958Z,49.17
2022-12-03T00:47:00.576Z,49.40
2022-12-03T00:49:27.181Z,49.36
2022-12-03T00:51:53.695Z,49.46
2022-12-03T00:54:20.272Z,49.39
2022-12-03T00:56:46.785Z,49.19
2022-12-03T00:59:13.359Z,49.50
2022-12-03T01:01:39.934Z,49.47
2022-12-03T01:04:06.528Z,49.48
2022-12-03T01:06:33.076Z,49.17
2022-12-03T01:08:59.587Z,49.40
2022-12-03T01:11:37.823Z,49.49
2022-12-03T01:14:09.847Z,49.36
2022-12-03T01:16:36.676Z,49.42
2022-12-03T01:19:04.398Z,49.18
2022-12-03T01:21:31.056Z,49.33
2022-12-03T01:23:57.588Z,49.39
2022-12-03T01:26:25.382Z,49.24
2022-12-03T01:28:52.768Z,49.47
2022-12-03T01:31:38.127Z,49.11
2022-12-03T01:34:05.015Z,49.41
2022-12-03T01:36:31.646Z,49.61
2022-12-03T01:38:58.171Z,49.43
2022-12-03T01:41:24.982Z,49.36
2022-12-03T01:43:52.063Z,49.30
2022-12-03T01:46:24.444Z,49.18
2022-12-03T01:48:52.767Z,49.37
2022-12-03T01:51:19.368Z,49.29
2022-12-03T01:53:46.145Z,49.49
2022-12-03T01:56:14.207Z,49.53
2022-12-03T01:58:41.010Z,49.43
2022-12-03T02:01:12.150Z,49.55
2022-12-03T02:03:38.775Z,49.46
2022-12-03T02:06:09.179Z,49.36
2022-12-03T02:08:37.464Z,49.46
2022-12-03T02:11:20.757Z,49.42
2022-12-03T02:13:48.851Z,49.15
2022-12-03T02:16:15.414Z,49.31
2022-12-03T02:18:42.770Z,49.32
2022-12-03T02:21:32.128Z,49.14
2022-12-03T02:24:22.239Z,49.24
2022-12-03T02:26:48.800Z,49.39
2022-12-03T02:29:15.351Z,49.13
2022-12-03T02:31:42.831Z,48.93
2022-12-03T02:34:11.155Z,48.93
2022-12-03T02:36:38.582Z,49.00
2022-12-03T02:39:05.487Z,49.08
2022-12-03T02:41:50.606Z,49.16
2022-12-03T02:44:17.153Z,48.84
2022-12-03T02:46:43.763Z,48.92
2022-12-03T02:49:10.390Z,49.07
2022-12-03T02:51:36.955Z,49.06
2022-12-03T02:54:03.809Z,49.19
2022-12-03T02:56:31.397Z,49.01
2022-12-03T02:59:00.667Z,49.07
2022-12-03T03:01:27.220Z,49.07
2022-12-03T03:03:54.158Z,49.15
2022-12-03T03:06:21.251Z,49.12
2022-12-03T03:08:48.219Z,49.03
2022-12-03T03:11:14.794Z,49.01
2022-12-03T03:13:41.345Z,49.00
2022-12-03T03:16:08.316Z,49.01
2022-12-03T03:18:35.386Z,48.96
2022-12-03T03:21:02.913Z,48.95
2022-12-03T03:23:29.428Z,48.66
2022-12-03T03:26:02.151Z,48.88
2022-12-03T03:28:29.749Z,48.91
2022-12-03T03:30:57.654Z,48.81
2022-12-03T03:33:24.347Z,48.95
2022-12-03T03:35:51.005Z,48.96
2022-12-03T03:38:19.367Z,48.99
2022-12-03T03:40:47.021Z,48.86
2022-12-03T03:43:13.912Z,48.88
2022-12-03T03:45:40.510Z,49.01
2022-12-03T03:48:07.136Z,49.00
2022-12-03T03:50:33.938Z,49.02
2022-12-03T03:53:01.548Z,49.07
2022-12-03T03:55:28.458Z,48.94
2022-12-03T03:57:55.003Z,49.02
2022-12-03T04:00:21.512Z,48.74
2022-12-03T04:02:48.075Z,48.80
2022-12-03T04:05:17.260Z,48.92
2022-12-03T04:07:43.844Z,48.83
2022-12-03T04:10:30.111Z,48.93
2022-12-03T04:12:56.760Z,49.07
2022-12-03T04:15:24.216Z,49.03
2022-12-03T04:18:10.723Z,48.85
2022-12-03T04:20:38.169Z,48.66
2022-12-03T04:23:05.191Z,48.80
2022-12-03T04:25:50.604Z,48.64
2022-12-03T04:28:35.656Z,49.05
2022-12-03T04:31:22.271Z,48.96
2022-12-03T04:34:07.347Z,48.95
2022-12-03T04:36:33.880Z,49.01
2022-12-03T04:39:00.395Z,49.13
2022-12-03T04:41:26.991Z,49.00
2022-12-03T04:44:12.126Z,49.03
2022-12-03T04:46:38.653Z,49.02
2022-12-03T04:49:05.180Z,49.18
2022-12-03T04:51:31.704Z,49.06
2022-12-03T04:53:58.231Z,48.88
2022-12-03T04:56:24.734Z,49.04
2022-12-03T04:58:51.332Z,48.99
2022-12-03T05:01:17.935Z,48.63
2022-12-03T05:03:44.560Z,48.66
2022-12-03T05:06:11.082Z,48.87
2022-12-03T05:08:37.588Z,48.98
2022-12-03T05:11:04.121Z,48.78
2022-12-03T05:13:30.652Z,48.69
2022-12-03T05:15:57.175Z,48.78
2022-12-03T05:18:23.688Z,48.58
2022-12-03T05:20:53.437Z,48.77
2022-12-03T05:23:20.504Z,48.66
2022-12-03T05:25:47.037Z,48.84
2022-12-03T05:28:13.575Z,48.99
2022-12-03T05:30:40.248Z,48.81
2022-12-03T05:33:06.830Z,48.65
2022-12-03T05:35:33.356Z,48.94
2022-12-03T05:37:59.925Z,49.04
2022-12-03T05:40:26.454Z,48.83
2022-12-03T05:43:01.112Z,48.82
2022-12-03T05:45:30.012Z,49.00
2022-12-03T05:47:57.843Z,49.06
2022-12-03T05:50:26.752Z,48.78
2022-12-03T05:52:53.280Z,48.83
2022-12-03T05:55:20.131Z,49.06
2022-12-03T05:57:47.248Z,48.98
2022-12-03T06:00:17.575Z,49.04
2022-12-03T06:02:44.316Z,48.86
2022-12-03T06:05:12.365Z,48.89
2022-12-03T06:07:38.966Z,48.93
2022-12-03T06:10:07.713Z,48.98
2022-12-03T06:12:34.234Z,48.80
2022-12-03T06:15:01.009Z,48.67
2022-12-03T06:17:27.600Z,48.59
2022-12-03T06:19:54.107Z,48.79
2022-12-03T06:22:20.610Z,48.85
2022-12-03T06:24:47.310Z,48.73
2022-12-03T06:27:13.815Z,48.75
2022-12-03T06:29:40.367Z,48.88
2022-12-03T06:32:07.187Z,48.88
2022-12-03T06:34:33.831Z,48.82
2022-12-03T06:37:00.353Z,48.83
2022-12-03T06:39:26.998Z,48.94
2022-12-03T06:41:53.558Z,49.10
2022-12-03T06:44:20.071Z,48.69
2022-12-03T06:46:47.922Z,48.82
2022-12-03T06:49:14.515Z,49.04
2022-12-03T06:51:41.079Z,49.22
2022-12-03T06:54:07.593Z,49.07
2022-12-03T06:56:37.895Z,48.91
2022-12-03T06:59:08.304Z,49.12
2022-12-03T07:01:34.912Z,48.94
2022-12-03T07:04:01.470Z,49.02
2022-12-03T07:06:27.983Z,48.87
2022-12-03T07:08:54.548Z,48.35
2022-12-03T07:11:33.190Z,48.34
2022-12-03T07:14:05.491Z,48.19
2022-12-03T07:16:32.828Z,48.03
2022-12-03T07:18:59.507Z,47.69
2022-12-03T07:21:26.042Z,47.29
2022-12-03T07:23:52.596Z,47.15
2022-12-03T07:26:19.305Z,46.95
2022-12-03T07:28:48.147Z,46.63
2022-12-03T07:31:15.096Z,46.45
2022-12-03T07:33:41.699Z,46.22
2022-12-03T07:36:08.871Z,46.29
2022-12-03T07:38:35.453Z,46.21
2022-12-03T07:41:01.964Z,45.95
2022-12-03T07:43:28.501Z,45.93
2022-12-03T07:45:55.078Z,45.80
2022-12-03T07:48:21.599Z,45.90
2022-12-03T07:50:48.179Z,45.71
2022-12-03T07:53:14.744Z,45.90
2022-12-03T07:55:41.279Z,45.92
2022-12-03T07:58:09.014Z,46.11
2022-12-03T08:00:35.614Z,46.38
2022-12-03T08:03:02.163Z,46.11
2022-12-03T08:05:29.863Z,46.17
2022-12-03T08:07:56.748Z,46.05
2022-12-03T08:10:24.872Z,46.17
2022-12-03T08:12:51.438Z,46.16
2022-12-03T08:15:19.254Z,45.99
2022-12-03T08:17:48.187Z,46.19
2022-12-03T08:20:17.002Z,46.22
2022-12-03T08:22:46.133Z,46.48
2022-12-03T08:25:21.808Z,46.53
2022-12-03T08:27:48.651Z,46.71
2022-12-03T08:30:16.220Z,47.74
2022-12-03T08:32:43.038Z,48.57
2022-12-03T08:35:14.430Z,48.47
2022-12-03T08:37:41.269Z,48.24
2022-12-03T08:40:23.352Z,48.06
2022-12-03T08:42:50.267Z,48.11
2022-12-03T08:45:39.926Z,47.76
2022-12-03T08:48:18.460Z,47.85
2022-12-03T08:50:45.431Z,47.86
2022-12-03T08:53:30.190Z,47.95
2022-12-03T08:56:02.065Z,47.80
2022-12-03T08:58:34.648Z,47.70
2022-12-03T09:01:15.725Z,47.98
2022-12-03T09:03:52.810Z,47.72
2022-12-03T09:06:19.435Z,47.68
2022-12-03T09:08:46.045Z,47.38
2022-12-03T09:11:13.333Z,47.27
2022-12-03T09:13:40.041Z,47.30
2022-12-03T09:16:07.164Z,47.23
2022-12-03T09:18:33.807Z,47.05
2022-12-03T09:21:00.336Z,47.05
2022-12-03T09:23:27.214Z,47.26
2022-12-03T09:25:53.743Z,47.11
2022-12-03T09:28:20.275Z,47.10
2022-12-03T09:30:46.801Z,46.96
2022-12-03T09:33:14.055Z,46.93
2022-12-03T09:35:40.582Z,47.06
2022-12-03T09:38:07.095Z,46.87
2022-12-03T09:40:34.179Z,46.69
2022-12-03T09:43:00.949Z,46.49
2022-12-03T09:45:27.470Z,46.45
2022-12-03T09:47:54.916Z,46.44
2022-12-03T09:50:26.350Z,46.69
2022-12-03T09:52:57.406Z,46.70
2022-12-03T09:55:26.430Z,46.37
2022-12-03T09:57:53.610Z,46.52
2022-12-03T10:00:23.892Z,46.65
2022-12-03T10:02:52.176Z,46.25
2022-12-03T10:05:22.413Z,46.47
2022-12-03T10:07:50.239Z,46.42
2022-12-03T10:10:18.911Z,46.47
2022-12-03T10:12:45.680Z,46.44
2022-12-03T10:15:14.635Z,46.26
2022-12-03T10:17:41.219Z,46.34
2022-12-03T10:20:11.615Z,46.41
2022-12-03T10:22:38.172Z,46.49
2022-12-03T10:25:12.393Z,46.66
2022-12-03T10:27:39.683Z,46.79
2022-12-03T10:30:19.785Z,46.38
2022-12-03T10:32:51.100Z,47.26
2022-12-03T10:35:20.685Z,47.21
2022-12-03T10:38:05.283Z,46.96
2022-12-03T10:40:32.635Z,46.61
2022-12-03T10:43:20.614Z,46.38
2022-12-03T10:45:50.668Z,46.34
2022-12-03T10:48:17.278Z,46.36
2022-12-03T10:50:51.109Z,46.44
2022-12-03T10:53:19.999Z,46.47
2022-12-03T10:55:47.733Z,46.17
2022-12-03T10:58:23.337Z,46.05
2022-12-03T11:00:53.277Z,46.05
2022-12-03T11:03:22.666Z,45.85
2022-12-03T11:05:49.975Z,45.85
2022-12-03T11:08:21.947Z,45.46
2022-12-03T11:11:03.379Z,45.79
2022-12-03T11:13:32.554Z,45.66
2022-12-03T11:16:00.249Z,45.64
2022-12-03T11:18:49.892Z,45.87
2022-12-03T11:21:16.427Z,45.74
2022-12-03T11:23:48.808Z,45.65
2022-12-03T11:26:19.315Z,45.50
2022-12-03T11:28:46.339Z,45.55
2022-12-03T11:31:38.991Z,45.37
2022-12-03T11:34:20.690Z,45.51
2022-12-03T11:37:26.022Z,45.31
2022-12-03T11:39:53.282Z,45.15
2022-12-03T11:42:25.407Z,45.09
2022-12-03T11:45:03.930Z,45.23
2022-12-03T11:47:40.751Z,45.16
2022-12-03T11:50:36.123Z,45.16
2022-12-03T11:53:21.324Z,45.04
2022-12-03T11:56:04.031Z,45.16
2022-12-03T11:58:31.011Z,45.32
2022-12-03T12:01:02.438Z,45.18
2022-12-03T12:03:37.292Z,45.26
2022-12-03T12:06:10.653Z,46.32
2022-12-03T12:08:55.021Z,46.52
2022-12-03T12:11:35.331Z,46.31
2022-12-03T12:14:05.921Z,45.85
2022-12-03T12:16:41.313Z,45.85
2022-12-03T12:19:31.112Z,45.67
2022-12-03T12:22:12.907Z,45.72
2022-12-03T12:24:48.267Z,45.52
2022-12-03T12:27:23.458Z,45.69
2022-12-03T12:30:00.969Z,45.51
2022-12-03T12:32:33.021Z,45.66
2022-12-03T12:35:16.116Z,45.39
2022-12-03T12:37:58.917Z,45.64
2022-12-03T12:40:29.050Z,45.28
2022-12-03T12:42:57.946Z,45.40
2022-12-03T12:45:26.912Z,46.01
2022-12-03T12:48:07.574Z,45.78
2022-12-03T12:50:34.101Z,45.48
2022-12-03T12:53:26.775Z,45.38
2022-12-03T12:56:11.541Z,45.35
2022-12-03T12:58:38.129Z,45.24
2022-12-03T13:01:07.821Z,45.27
2022-12-03T13:03:37.826Z,44.96
2022-12-03T13:06:04.499Z,44.69
2022-12-03T13:08:33.915Z,44.88
2022-12-03T13:11:01.668Z,44.89
2022-12-03T13:13:44.046Z,45.20
2022-12-03T13:16:18.660Z,45.08
2022-12-03T13:18:47.466Z,44.89
2022-12-03T13:21:27.254Z,44.93
2022-12-03T13:23:56.583Z,45.09
2022-12-03T13:26:38.323Z,45.13
2022-12-03T13:29:15.142Z,45.08
2022-12-03T13:31:44.368Z,45.11
2022-12-03T13:34:16.985Z,45.03
2022-12-03T13:36:44.796Z,45.51
2022-12-03T13:39:32.431Z,45.19
2022-12-03T13:42:28.204Z,45.33
2022-12-03T13:44:54.743Z,45.50
2022-12-03T13:47:22.636Z,45.54
2022-12-03T13:50:03.663Z,45.42
2022-12-03T13:52:31.815Z,45.48
2022-12-03T13:54:58.513Z,45.26
2022-12-03T13:57:25.119Z,45.43
2022-12-03T13:59:52.096Z,45.26
2022-12-03T14:02:19.065Z,45.17
2022-12-03T14:04:45.656Z,45.29
2022-12-03T14:07:12.196Z,45.27
2022-12-03T14:09:38.755Z,45.30
2022-12-03T14:12:24.411Z,45.33
2022-12-03T14:14:50.931Z,45.35
2022-12-03T14:17:17.804Z,45.20
2022-12-03T14:19:44.845Z,45.31
2022-12-03T14:22:11.582Z,45.24
2022-12-03T14:24:39.903Z,45.55
2022-12-03T14:27:06.451Z,45.43
2022-12-03T14:29:33.059Z,45.33
2022-12-03T14:31:59.821Z,45.35
2022-12-03T14:34:26.462Z,45.37
2022-12-03T14:36:53.016Z,45.54
2022-12-03T14:39:19.675Z,45.40
2022-12-03T14:42:04.739Z,45.47
2022-12-03T14:44:31.375Z,45.62
2022-12-03T14:46:57.938Z,45.60
2022-12-03T14:49:24.586Z,45.43
2022-12-03T14:51:51.196Z,45.51
2022-12-03T14:54:17.719Z,45.31
2022-12-03T14:56:44.230Z,45.46
2022-12-03T14:59:10.782Z,45.39
2022-12-03T15:01:37.343Z,45.49
2022-12-03T15:04:03.927Z,45.66
2022-12-03T15:06:30.462Z,45.65
2022-12-03T15:08:56.974Z,45.68
2022-12-03T15:11:23.507Z,45.56
2022-12-03T15:13:50.042Z,45.61
2022-12-03T15:16:16.656Z,45.73
2022-12-03T15:18:43.280Z,45.55
2022-12-03T15:21:09.856Z,45.43
2022-12-03T15:23:36.373Z,45.15
2022-12-03T15:26:03.316Z,45.40
2022-12-03T15:28:30.031Z,45.21
2022-12-03T15:30:56.599Z,45.33
2022-12-03T15:33:23.234Z,45.37
2022-12-03T15:35:49.804Z,45.44
2022-12-03T15:38:16.322Z,45.32
2022-12-03T15:40:42.913Z,45.36
2022-12-03T15:43:09.944Z,45.20
2022-12-03T15:45:36.856Z,45.10
2022-12-03T15:48:04.038Z,45.20
2022-12-03T15:50:32.672Z,45.25
2022-12-03T15:53:02.284Z,45.14
2022-12-03T15:55:28.848Z,45.27
2022-12-03T15:57:55.451Z,45.22
2022-12-03T16:00:22.339Z,45.33
2022-12-03T16:02:52.612Z,45.40
2022-12-03T16:05:19.623Z,45.22
2022-12-03T16:07:46.191Z,45.28
2022-12-03T16:10:13.161Z,45.21
2022-12-03T16:12:39.755Z,45.34
2022-12-03T16:15:06.591Z,45.48
2022-12-03T16:17:33.260Z,45.31
2022-12-03T16:19:59.803Z,45.42
2022-12-03T16:22:26.344Z,45.37
2022-12-03T16:24:52.868Z,45.44
2022-12-03T16:27:24.040Z,45.17
2022-12-03T16:29:52.380Z,45.21
2022-12-03T16:32:19.274Z,45.18
2022-12-03T16:34:45.783Z,44.97
2022-12-03T16:37:12.315Z,45.16
2022-12-03T16:39:39.168Z,45.19
2022-12-03T16:42:08.965Z,44.88
2022-12-03T16:45:14.130Z,44.95
2022-12-03T16:47:40.640Z,45.22
2022-12-03T16:50:09.850Z,45.13
2022-12-03T16:52:38.178Z,45.49
2022-12-03T16:55:05.151Z,45.24
2022-12-03T16:57:33.888Z,45.27
2022-12-03T17:00:00.981Z,45.00
2022-12-03T17:02:27.784Z,45.31
2022-12-03T17:04:54.490Z,45.30
2022-12-03T17:07:21.060Z,45.38
2022-12-03T17:09:47.654Z,45.35
2022-12-03T17:12:14.166Z,45.46
2022-12-03T17:14:40.675Z,45.68
2022-12-03T17:17:07.217Z,45.89
2022-12-03T17:19:33.739Z,45.97
2022-12-03T17:22:00.271Z,46.16
2022-12-03T17:24:26.785Z,46.07
2022-12-03T17:26:53.356Z,45.91
2022-12-03T17:29:19.924Z,46.09
2022-12-03T17:31:46.527Z,46.29
2022-12-03T17:34:13.080Z,46.33
2022-12-03T17:36:39.630Z,46.32
2022-12-03T17:39:06.168Z,46.37
2022-12-03T17:41:32.684Z,46.50
2022-12-03T17:43:59.220Z,46.45
2022-12-03T17:46:25.756Z,46.41
2022-12-03T17:48:52.371Z,46.42
2022-12-03T17:51:20.817Z,46.38
2022-12-03T17:53:47.406Z,46.36
2022-12-03T17:56:13.927Z,46.57
2022-12-03T17:58:40.478Z,46.54
2022-12-03T18:01:09.375Z,46.49
2022-12-03T18:03:36.470Z,46.97
2022-12-03T18:06:03.963Z,46.68
2022-12-03T18:08:30.595Z,46.60
2022-12-03T18:10:57.109Z,46.80
2022-12-03T18:13:23.648Z,46.88
2022-12-03T18:15:50.249Z,46.77
2022-12-03T18:18:16.862Z,46.71
2022-12-03T18:20:43.410Z,46.74
2022-12-03T18:23:09.920Z,46.65
2022-12-03T18:25:36.448Z,46.86
2022-12-03T18:28:03.062Z,47.04
2022-12-03T18:30:29.639Z,46.81
2022-12-03T18:32:56.235Z,47.02
2022-12-03T18:35:22.807Z,47.01
2022-12-03T18:37:50.589Z,47.12
2022-12-03T18:40:20.091Z,46.83
2022-12-03T18:42:47.966Z,46.97
2022-12-03T18:45:15.773Z,47.08
2022-12-03T18:47:42.558Z,46.87
2022-12-03T18:50:09.939Z,46.88
2022-12-03T18:52:36.515Z,46.77
2022-12-03T18:55:04.475Z,46.86
2022-12-03T18:57:31.011Z,46.83
2022-12-03T18:59:58.266Z,46.76
2022-12-03T19:02:54.154Z,47.00
2022-12-03T19:05:11.686Z,46.96
2022-12-03T19:07:38.365Z,47.20
2022-12-03T19:10:05.298Z,47.05
2022-12-03T19:12:32.795Z,46.95
2022-12-03T19:14:59.327Z,47.04
2022-12-03T19:17:27.195Z,47.35
2022-12-03T19:19:54.352Z,47.03
2022-12-03T19:22:21.291Z,46.98
2022-12-03T19:24:47.810Z,47.42
2022-12-03T19:27:14.455Z,47.31
2022-12-03T19:29:40.977Z,47.17
2022-12-03T19:32:07.584Z,47.16
2022-12-03T19:34:34.246Z,47.33
2022-12-03T19:37:00.920Z,47.23
2022-12-03T19:39:27.488Z,47.53
2022-12-03T19:41:54.013Z,47.48
2022-12-03T19:44:20.550Z,47.46
2022-12-03T19:46:49.169Z,47.78
2022-12-03T19:49:18.432Z,47.79
2022-12-03T19:51:45.004Z,48.14
2022-12-03T19:54:12.245Z,48.01
2022-12-03T19:56:38.838Z,48.25
2022-12-03T19:59:05.775Z,48.35
2022-12-03T20:01:34.199Z,48.29
2022-12-03T20:04:02.172Z,48.47
2022-12-03T20:06:31.578Z,48.65
2022-12-03T20:09:03.756Z,48.74
2022-12-03T20:11:32.634Z,48.83
2022-12-03T20:14:05.173Z,48.75
2022-12-03T20:16:31.830Z,48.73
2022-12-03T20:19:00.206Z,48.75
2022-12-03T20:21:28.798Z,48.76
2022-12-03T20:23:55.346Z,48.59
2022-12-03T20:26:22.595Z,48.67
2022-12-03T20:28:49.627Z,48.95
2022-12-03T20:31:18.649Z,48.79
2022-12-03T20:33:48.129Z,48.47
2022-12-03T20:36:16.280Z,48.89
2022-12-03T20:38:43.334Z,48.82
2022-12-03T20:41:15.364Z,48.75
2022-12-03T20:43:42.004Z,48.74
2022-12-03T20:46:13.712Z,48.84
2022-12-03T20:48:40.988Z,48.91
2022-12-03T20:51:10.246Z,48.60
2022-12-03T20:53:37.497Z,48.64
2022-12-03T20:56:04.547Z,48.45
2022-12-03T20:58:32.193Z,48.42
2022-12-03T21:01:16.810Z,48.77
2022-12-03T21:03:44.308Z,48.74
2022-12-03T21:06:11.717Z,48.56
2022-12-03T21:08:42.578Z,48.69
2022-12-03T21:11:10.835Z,48.64
2022-12-03T21:13:41.057Z,48.65
2022-12-03T21:16:10.029Z,48.65
2022-12-03T21:18:37.011Z,48.70
2022-12-03T21:21:04.873Z,48.16
2022-12-03T21:23:32.919Z,48.73
2022-12-03T21:26:09.725Z,48.90
2022-12-03T21:28:38.222Z,48.55
2022-12-03T21:31:07.268Z,48.59
2022-12-03T21:33:34.140Z,48.69
2022-12-03T21:36:01.003Z,48.68
2022-12-03T21:38:28.395Z,48.69
2022-12-03T21:40:55.527Z,48.69
2022-12-03T21:43:22.400Z,48.55
2022-12-03T21:45:49.574Z,48.66
2022-12-03T21:48:16.790Z,48.83
2022-12-03T21:50:43.563Z,48.88
2022-12-03T21:53:10.173Z,48.58
2022-12-03T21:55:40.740Z,48.74
2022-12-03T21:58:08.129Z,48.80
2022-12-03T22:00:35.167Z,48.76
2022-12-03T22:03:01.759Z,48.60
2022-12-03T22:05:28.368Z,48.68
2022-12-03T22:07:54.921Z,48.80
2022-12-03T22:10:21.486Z,48.83
2022-12-03T22:12:48.038Z,48.54
2022-12-03T22:15:18.752Z,48.51
2022-12-03T22:17:45.806Z,48.71
2022-12-03T22:20:12.674Z,48.81
2022-12-03T22:22:39.214Z,48.85
2022-12-03T22:25:05.835Z,48.82
2022-12-03T22:27:32.443Z,49.10
2022-12-03T22:29:59.018Z,49.01
2022-12-03T22:32:25.763Z,48.77
2022-12-03T22:34:52.311Z,48.78
2022-12-03T22:37:18.847Z,48.70
2022-12-03T22:39:45.415Z,49.03
2022-12-03T22:42:11.943Z,48.92
2022-12-03T22:44:38.451Z,48.88
2022-12-03T22:47:05.485Z,48.75
2022-12-03T22:49:32.000Z,48.65
2022-12-03T22:51:58.542Z,48.68
2022-12-03T22:54:25.054Z,48.84
2022-12-03T22:56:51.570Z,49.00
2022-12-03T22:59:18.136Z,48.83
2022-12-03T23:01:44.654Z,48.77
2022-12-03T23:04:11.732Z,48.63
2022-12-03T23:06:39.110Z,48.64
2022-12-03T23:09:07.257Z,48.66
2022-12-03T23:11:34.221Z,48.53
2022-12-03T23:14:00.760Z,48.92
2022-12-03T23:16:30.050Z,48.72
2022-12-03T23:19:00.443Z,48.97
2022-12-03T23:21:30.731Z,48.91
2022-12-03T23:24:01.523Z,49.01
2022-12-03T23:26:28.385Z,48.76
2022-12-03T23:28:55.327Z,48.91
2022-12-03T23:31:27.213Z,48.93
2022-12-03T23:33:54.492Z,48.84
2022-12-03T23:36:21.665Z,49.05
2022-12-03T23:38:48.365Z,48.95
2022-12-03T23:41:17.431Z,49.10
2022-12-03T23:43:43.962Z,48.76
2022-12-03T23:46:11.707Z,48.83
2022-12-03T23:48:38.587Z,48.87
2022-12-03T23:51:13.181Z,48.66
2022-12-03T23:53:40.111Z,49.01
2022-12-03T23:56:12.204Z,48.88
2022-12-03T23:58:38.765Z,48.79
